Alapuzha, India

9:43 PM IST on August 24, 2016 (GMT +0530)
Cochin International | | Change Station

Elev 26 ft 10.15 °N, 76.40 °E | Updated 13 minutes ago

Haze
Haze
81 °F
Feels Like 85 °F
N
0
Wind Variable Wind from North

Today
High -- | Low -- °F
--% Chance of Precip.
Yesterday
High -- | Low -- °F
Precip. -- in
Pressure 29.83 in
Visibility 2.5 miles
Clouds Few 1500 ft
Heat Index 85 °F
Dew Point 73 °F
Humidity 79%
Rainfall 0.00 in
Snow Depth Not available.
6:15 AM 6:37 PM
Waning Gibbous, 55% visible
METAR VOCI 241600Z 00000KT 4000 HZ FEW015 27/23 Q1010 NOSIG
Pressure 29.83 in
Visibility 2.5 miles
Clouds Few 1500 ft
Heat Index 85 °F
Dew Point 73 °F
Humidity 79%
Rainfall 0.00 in
Snow Depth Not available.
6:15 AM 6:37 PM
Waning Gibbous, 55% visible
METAR VOCI 241600Z 00000KT 4000 HZ FEW015 27/23 Q1010 NOSIG

10-Day Weather Forecast

No radar image for this location.
×

Almanac

Astronomy

Aug. 24, 2016 Rise Set
Actual Time
Civil Twilight
Nautical Twilight
Astronomical Twilight
Moon
Length of Visible Light
Length of Day
Tomorrow will be .
, % of the Moon is Illuminated

Today's Extremes

Country Highs Country Lows

Community

WunderPhotos

Upload Photos

1,934,648 photos uploaded!

WunderBlog® & News

Nearby

Air Quality

  Air Quality AQ Index Pollutant
Not available.

Snow Depth

Station Depth Elevation

Earthquake Activity

City Distance Mag. Time & Date
Minimum magnitude displayed is 2.5.

Coastal Water Temperatures

Place Temperature

Stations

Nearby Weather Stations

Station Location Temp. Windchill Dew Point Humidity Wind Precip. Elev Updated Type